createdAt,value
2018-03-26T00:01:24.139Z,23.03
2018-03-26T00:03:50.617Z,24.20
2018-03-26T00:06:17.015Z,23.70
2018-03-26T00:08:43.396Z,24.73
2018-03-26T00:11:09.777Z,23.20
2018-03-26T00:13:36.166Z,21.33
2018-03-26T00:16:02.646Z,24.73
2018-03-26T00:18:29.089Z,22.17
2018-03-26T00:20:55.538Z,22.43
2018-03-26T00:23:21.902Z,22.30
2018-03-26T00:25:48.310Z,22.03
2018-03-26T00:28:14.673Z,23.73
2018-03-26T00:30:41.078Z,23.73
2018-03-26T00:33:07.490Z,24.33
2018-03-26T00:35:33.845Z,22.80
2018-03-26T00:38:00.237Z,23.20
2018-03-26T00:40:26.609Z,22.03
2018-03-26T00:42:53.033Z,22.67
2018-03-26T00:45:19.386Z,24.27
2018-03-26T00:47:45.755Z,22.57
2018-03-26T00:50:12.141Z,24.23
2018-03-26T00:52:38.590Z,24.17
2018-03-26T00:55:04.978Z,26.07
2018-03-26T00:57:31.429Z,26.03
2018-03-26T00:59:57.785Z,25.23
2018-03-26T01:02:24.158Z,26.23
2018-03-26T01:04:50.510Z,25.73
2018-03-26T01:07:16.898Z,24.83
2018-03-26T01:09:43.302Z,26.30
2018-03-26T01:12:09.810Z,26.20
2018-03-26T01:14:36.260Z,25.77
2018-03-26T01:17:02.637Z,27.53
2018-03-26T01:19:29.016Z,26.73
2018-03-26T01:21:55.454Z,26.07
2018-03-26T01:24:21.910Z,25.77
2018-03-26T01:26:48.281Z,25.40
2018-03-26T01:29:14.673Z,26.07
2018-03-26T01:31:41.086Z,22.87
2018-03-26T01:34:07.443Z,23.10
2018-03-26T01:36:33.861Z,22.43
2018-03-26T01:39:00.270Z,21.83
2018-03-26T01:41:26.778Z,22.93
2018-03-26T01:43:53.238Z,21.80
2018-03-26T01:46:19.642Z,22.20
2018-03-26T01:48:46.073Z,19.73
2018-03-26T01:51:12.506Z,19.57
2018-03-26T01:53:38.885Z,19.67
2018-03-26T01:56:05.351Z,19.60
2018-03-26T01:58:31.801Z,20.43
2018-03-26T02:00:58.197Z,19.37
2018-03-26T02:03:24.648Z,20.40
2018-03-26T02:05:51.064Z,19.10
2018-03-26T02:08:17.463Z,20.30
2018-03-26T02:10:43.870Z,20.67
2018-03-26T02:13:10.275Z,19.93
2018-03-26T02:15:36.709Z,18.60
2018-03-26T02:18:03.218Z,17.80
2018-03-26T02:20:29.637Z,18.87
2018-03-26T02:22:55.975Z,20.30
2018-03-26T02:25:22.357Z,21.40
2018-03-26T02:27:48.741Z,21.10
2018-03-26T02:30:15.178Z,20.80
2018-03-26T02:32:41.595Z,19.33
2018-03-26T02:35:08.001Z,21.03
2018-03-26T02:37:34.380Z,19.70
2018-03-26T02:40:00.783Z,19.63
2018-03-26T02:42:27.173Z,17.83
2018-03-26T02:44:53.637Z,17.77
2018-03-26T02:47:19.999Z,17.63
2018-03-26T02:49:46.472Z,18.17
2018-03-26T02:52:12.915Z,16.93
2018-03-26T02:54:39.395Z,16.10
2018-03-26T02:57:05.824Z,17.37
2018-03-26T02:59:32.268Z,17.40
2018-03-26T03:01:58.771Z,16.90
2018-03-26T03:04:25.178Z,17.23
2018-03-26T03:06:51.557Z,15.70
2018-03-26T03:09:17.994Z,15.27
2018-03-26T03:11:44.494Z,14.33
2018-03-26T03:14:10.986Z,16.90
2018-03-26T03:16:37.432Z,18.10
2018-03-26T03:19:03.875Z,15.33
2018-03-26T03:21:30.278Z,14.80
2018-03-26T03:23:56.686Z,15.27
2018-03-26T03:26:23.122Z,15.07
2018-03-26T03:28:49.601Z,15.13
2018-03-26T03:31:15.961Z,14.03
2018-03-26T03:33:42.399Z,16.10
2018-03-26T03:36:08.797Z,18.87
2018-03-26T03:38:35.249Z,18.00
2018-03-26T03:41:01.634Z,17.53
2018-03-26T03:43:28.054Z,15.37
2018-03-26T03:45:54.451Z,15.77
2018-03-26T03:48:20.994Z,14.77
2018-03-26T03:50:47.410Z,13.13
2018-03-26T03:53:13.831Z,15.93
2018-03-26T03:55:40.234Z,19.93
2018-03-26T03:58:06.677Z,18.73
2018-03-26T04:00:33.110Z,18.20
2018-03-26T04:02:59.522Z,17.97
2018-03-26T04:05:25.934Z,18.57
2018-03-26T04:07:52.377Z,16.50
2018-03-26T04:10:18.822Z,16.10
2018-03-26T04:12:45.253Z,19.17
2018-03-26T04:15:11.677Z,16.77
2018-03-26T04:17:38.117Z,16.97
2018-03-26T04:20:04.620Z,16.87
2018-03-26T04:22:30.985Z,15.80
2018-03-26T04:24:57.414Z,18.93
2018-03-26T04:27:23.857Z,18.73
2018-03-26T04:29:50.329Z,21.83
2018-03-26T04:32:16.763Z,23.50
2018-03-26T04:34:43.169Z,21.13
2018-03-26T04:37:09.613Z,31.33
2018-03-26T04:39:36.085Z,26.37
2018-03-26T04:42:02.626Z,24.20
2018-03-26T04:44:29.006Z,32.83
2018-03-26T04:46:55.497Z,55.13
2018-03-26T04:49:21.934Z,23.70
2018-03-26T04:51:48.293Z,22.80
2018-03-26T04:54:14.850Z,22.40
2018-03-26T04:56:41.257Z,19.60
2018-03-26T04:59:07.678Z,28.83
2018-03-26T05:01:34.083Z,33.10
2018-03-26T05:04:00.482Z,35.10
2018-03-26T05:06:26.873Z,27.67
2018-03-26T05:08:53.329Z,25.70
2018-03-26T05:11:20.080Z,24.30
2018-03-26T05:13:46.690Z,24.00
2018-03-26T05:16:13.058Z,27.67
2018-03-26T05:18:39.632Z,26.40
2018-03-26T05:21:06.022Z,25.53
2018-03-26T05:23:32.373Z,27.23
2018-03-26T05:25:58.818Z,24.73
2018-03-26T05:28:25.214Z,26.60
2018-03-26T05:30:51.653Z,26.47
2018-03-26T05:33:18.163Z,26.77
2018-03-26T05:35:44.671Z,24.37
2018-03-26T05:38:11.046Z,25.53
2018-03-26T05:40:37.667Z,27.93
2018-03-26T05:43:04.170Z,26.63
2018-03-26T05:45:30.647Z,29.50
2018-03-26T05:47:57.059Z,30.00
2018-03-26T05:50:23.621Z,26.23
2018-03-26T05:52:50.039Z,38.07
2018-03-26T05:55:16.435Z,27.83
2018-03-26T05:57:42.970Z,27.57
2018-03-26T06:00:09.456Z,32.33
2018-03-26T06:02:35.819Z,35.60
2018-03-26T06:05:02.278Z,41.40
2018-03-26T06:07:28.621Z,33.50
2018-03-26T06:09:55.026Z,30.50
2018-03-26T06:12:21.594Z,26.43
2018-03-26T06:14:48.041Z,24.67
2018-03-26T06:17:14.605Z,24.30
2018-03-26T06:19:41.129Z,25.63
2018-03-26T06:22:07.861Z,22.17
2018-03-26T06:24:34.360Z,27.33
2018-03-26T06:27:00.901Z,32.63
2018-03-26T06:29:27.401Z,33.57
2018-03-26T06:31:53.963Z,29.03
2018-03-26T06:34:20.421Z,27.30
2018-03-26T06:50:09.502Z,29.80
2018-03-26T06:52:36.042Z,31.20
2018-03-26T06:55:02.594Z,27.47
2018-03-26T06:57:29.034Z,23.17
2018-03-26T06:59:55.410Z,23.63
2018-03-26T07:02:21.900Z,24.97
2018-03-26T07:04:48.312Z,26.30
2018-03-26T07:07:15.097Z,24.37
2018-03-26T07:09:41.462Z,22.27
2018-03-26T07:12:07.942Z,21.40
2018-03-26T07:14:34.381Z,19.47
2018-03-26T07:17:00.756Z,22.13
2018-03-26T07:19:27.234Z,22.77
2018-03-26T07:21:53.757Z,23.60
2018-03-26T07:24:20.314Z,30.90
2018-03-26T07:26:46.724Z,35.00
2018-03-26T07:29:13.254Z,35.10
2018-03-26T07:31:39.629Z,36.27
2018-03-26T07:34:06.046Z,33.83
2018-03-26T07:36:32.478Z,34.60
2018-03-26T07:38:59.316Z,36.37
2018-03-26T07:41:25.970Z,55.90
2018-03-26T07:43:52.577Z,44.77
2018-03-26T07:46:19.142Z,41.30
2018-03-26T07:48:45.546Z,42.50
2018-03-26T07:51:12.058Z,42.53
2018-03-26T07:53:38.742Z,44.50
2018-03-26T07:56:05.317Z,46.67
2018-03-26T07:58:31.755Z,58.10
2018-03-26T08:00:58.406Z,32.60
2018-03-26T08:03:25.007Z,26.33
2018-03-26T08:05:51.968Z,31.73
2018-03-26T08:08:18.518Z,33.30
2018-03-26T08:10:46.165Z,35.23
2018-03-26T08:13:12.688Z,42.87
2018-03-26T08:15:40.125Z,30.30
2018-03-26T08:18:10.966Z,28.90
2018-03-26T09:04:36.957Z,36.23
2018-03-26T09:07:03.521Z,31.03
2018-03-26T09:09:29.953Z,31.30
2018-03-26T09:11:57.471Z,33.37
2018-03-26T09:14:24.559Z,32.37
2018-03-26T09:16:51.050Z,34.57
2018-03-26T09:19:17.626Z,37.87
2018-03-26T09:21:43.994Z,41.23
2018-03-26T09:24:10.514Z,36.27
2018-03-26T09:26:36.953Z,48.53
2018-03-26T09:29:03.557Z,49.87
2018-03-26T09:31:30.039Z,49.17
2018-03-26T09:33:56.560Z,48.87
2018-03-26T09:36:23.070Z,52.57
2018-03-26T09:38:49.978Z,51.80
2018-03-26T09:41:16.498Z,48.63
2018-03-26T09:43:42.867Z,35.30
2018-03-26T09:46:09.367Z,25.00
2018-03-26T09:48:35.731Z,27.00
2018-03-26T09:51:02.330Z,28.33
2018-03-26T09:53:28.889Z,25.50
2018-03-26T09:55:55.332Z,24.33
2018-03-26T09:58:21.793Z,26.37
2018-03-26T10:00:48.247Z,26.93
2018-03-26T10:03:14.610Z,25.97
2018-03-26T10:05:41.001Z,25.13
2018-03-26T10:08:07.407Z,22.17
2018-03-26T10:10:33.927Z,25.00
2018-03-26T10:13:03.778Z,30.33
2018-03-26T10:15:31.824Z,29.63
2018-03-26T10:18:00.661Z,37.10
2018-03-26T10:20:32.358Z,36.33
2018-03-26T10:23:01.189Z,38.97
2018-03-26T10:25:34.866Z,42.67
2018-03-26T10:28:07.231Z,36.53
2018-03-26T10:30:51.059Z,30.53
2018-03-26T10:34:00.427Z,27.87
2018-03-26T10:36:29.690Z,24.63
2018-03-26T10:38:56.110Z,18.20
2018-03-26T10:41:22.609Z,21.50
2018-03-26T10:43:49.071Z,21.30
2018-03-26T10:46:15.562Z,21.23
2018-03-26T10:48:42.209Z,19.63
2018-03-26T10:51:08.654Z,48.97
2018-03-26T10:53:35.081Z,33.93
2018-03-26T10:56:01.490Z,41.97
2018-03-26T10:58:27.902Z,52.57
2018-03-26T11:00:54.398Z,36.83
2018-03-26T11:03:20.969Z,34.40
2018-03-26T11:05:47.569Z,37.23
2018-03-26T11:08:14.026Z,39.73
2018-03-26T11:10:40.547Z,49.33
2018-03-26T11:13:07.570Z,41.20
2018-03-26T11:15:34.078Z,39.20
2018-03-26T11:18:01.239Z,37.30
2018-03-26T11:20:31.241Z,37.00
2018-03-26T11:22:57.969Z,34.53
2018-03-26T11:25:25.205Z,35.57
2018-03-26T11:27:52.523Z,36.13
2018-03-26T11:30:19.291Z,29.57
2018-03-26T11:32:45.956Z,33.93
2018-03-26T11:35:14.237Z,45.60
2018-03-26T11:37:44.396Z,34.30
2018-03-26T11:40:10.938Z,32.00
2018-03-26T11:42:37.473Z,33.10
2018-03-26T11:45:04.183Z,33.50
2018-03-26T11:47:31.057Z,30.30
2018-03-26T11:49:57.889Z,29.07
2018-03-26T11:52:24.522Z,27.87
2018-03-26T11:55:00.236Z,25.87
2018-03-26T11:57:29.505Z,22.73
2018-03-26T11:59:56.070Z,24.23
2018-03-26T12:02:22.698Z,25.13
2018-03-26T12:04:49.198Z,28.40
2018-03-26T12:07:15.731Z,28.67
2018-03-26T12:09:42.366Z,26.63
2018-03-26T12:12:09.041Z,29.87
2018-03-26T12:14:35.594Z,26.77
2018-03-26T12:17:02.252Z,25.90
2018-03-26T12:19:28.951Z,27.70
2018-03-26T12:21:55.625Z,31.03
2018-03-26T12:24:34.521Z,29.00
2018-03-26T12:27:01.096Z,29.43
2018-03-26T12:29:39.967Z,31.37
2018-03-26T12:32:06.559Z,38.00
2018-03-26T12:34:45.293Z,46.17
2018-03-26T12:37:12.005Z,39.80
2018-03-26T12:39:38.696Z,38.17
2018-03-26T12:42:05.402Z,35.57
2018-03-26T12:44:44.138Z,28.80
2018-03-26T12:47:10.555Z,39.67
2018-03-26T12:49:37.033Z,40.67
2018-03-26T12:52:15.849Z,40.10
2018-03-26T12:54:42.301Z,48.03
2018-03-26T12:57:21.111Z,52.57
2018-03-26T12:59:47.651Z,48.13
2018-03-26T13:02:31.234Z,48.70
2018-03-26T13:04:58.064Z,76.40
2018-03-26T13:07:24.726Z,76.20
2018-03-26T13:09:51.375Z,46.73
2018-03-26T13:12:17.988Z,51.93
2018-03-26T13:14:44.542Z,36.70
2018-03-26T13:17:11.124Z,49.30
2018-03-26T13:19:37.766Z,43.00
2018-03-26T13:22:04.372Z,44.90
2018-03-26T13:24:31.005Z,42.17
2018-03-26T13:26:57.526Z,36.07
2018-03-26T13:29:24.053Z,36.33
2018-03-26T13:31:50.614Z,33.57
2018-03-26T13:34:17.229Z,28.87
2018-03-26T13:36:44.102Z,27.33
2018-03-26T13:39:10.881Z,24.97
2018-03-26T13:41:37.450Z,21.43
2018-03-26T13:44:04.113Z,19.00
2018-03-26T13:46:30.905Z,16.30
2018-03-26T13:48:57.822Z,14.67
2018-03-26T13:51:24.419Z,15.63
2018-03-26T13:53:51.242Z,14.07
2018-03-26T13:56:17.917Z,14.83
2018-03-26T13:58:44.588Z,15.47
2018-03-26T14:01:11.253Z,23.63
2018-03-26T14:03:37.881Z,24.97
2018-03-26T14:06:04.594Z,22.30
2018-03-26T14:21:57.178Z,24.67
2018-03-26T14:24:23.745Z,27.20
2018-03-26T14:26:50.358Z,28.13
2018-03-26T14:29:17.311Z,27.90
2018-03-26T14:31:44.054Z,26.90
2018-03-26T14:34:10.609Z,28.93
2018-03-26T14:36:37.226Z,27.17
2018-03-26T14:39:03.982Z,26.63
2018-03-26T14:41:30.642Z,27.90
2018-03-26T14:43:57.472Z,28.47
2018-03-26T14:46:24.161Z,29.33
2018-03-26T14:48:50.775Z,28.83
2018-03-26T14:51:17.309Z,29.80
2018-03-26T14:53:43.832Z,30.57
2018-03-26T14:56:10.466Z,32.63
2018-03-26T14:58:37.086Z,31.07
2018-03-26T15:01:03.682Z,31.47
2018-03-26T15:03:30.214Z,29.10
2018-03-26T15:05:56.843Z,28.87
2018-03-26T15:08:23.366Z,30.77
2018-03-26T15:10:49.976Z,33.60
2018-03-26T15:13:16.630Z,34.33
2018-03-26T15:15:43.141Z,35.00
2018-03-26T15:18:09.656Z,32.87
2018-03-26T15:20:36.218Z,33.30
2018-03-26T15:23:02.906Z,31.53
2018-03-26T15:25:29.427Z,32.00
2018-03-26T15:27:56.010Z,32.43
2018-03-26T15:30:22.618Z,33.17
2018-03-26T15:32:49.155Z,32.97
2018-03-26T15:35:15.822Z,31.33
2018-03-26T15:37:42.399Z,32.57
2018-03-26T15:40:08.937Z,32.27
2018-03-26T15:42:35.554Z,33.77
2018-03-26T15:45:02.285Z,35.67
2018-03-26T15:47:28.810Z,34.60
2018-03-26T15:49:55.413Z,35.93
2018-03-26T15:52:22.078Z,36.57
2018-03-26T15:54:48.702Z,37.60
2018-03-26T15:57:15.235Z,38.07
2018-03-26T15:59:41.809Z,35.17
2018-03-26T16:02:08.194Z,36.87
2018-03-26T16:04:34.866Z,36.40
2018-03-26T16:07:01.440Z,38.17
2018-03-26T16:09:27.978Z,38.03
2018-03-26T16:11:54.502Z,39.83
2018-03-26T16:14:21.074Z,36.73
2018-03-26T16:16:47.662Z,39.30
2018-03-26T16:19:14.158Z,37.70
2018-03-26T16:21:40.752Z,39.63
2018-03-26T16:24:07.499Z,37.83
2018-03-26T16:26:34.034Z,39.27
2018-03-26T16:29:00.577Z,39.10
2018-03-26T16:31:27.094Z,41.50
2018-03-26T16:33:53.642Z,38.83
2018-03-26T16:36:20.223Z,37.77
2018-03-26T16:38:47.125Z,39.83
2018-03-26T16:41:25.903Z,42.63
2018-03-26T16:43:52.398Z,40.53
2018-03-26T16:46:18.971Z,40.73
2018-03-26T16:48:45.491Z,41.10
2018-03-26T16:51:12.042Z,41.77
2018-03-26T16:53:38.604Z,41.40
2018-03-26T16:56:05.250Z,41.10
2018-03-26T16:58:31.900Z,41.63
2018-03-26T17:00:58.498Z,43.30
2018-03-26T17:03:25.098Z,42.90
2018-03-26T17:05:51.683Z,42.03
2018-03-26T17:08:18.202Z,46.00
2018-03-26T17:10:44.770Z,44.77
2018-03-26T17:13:11.262Z,44.60
2018-03-26T17:15:37.802Z,44.43
2018-03-26T17:18:04.417Z,41.80
2018-03-26T17:20:30.926Z,44.77
2018-03-26T17:22:57.479Z,44.03
2018-03-26T17:25:23.998Z,43.30
2018-03-26T17:27:50.510Z,43.57
2018-03-26T17:30:17.046Z,45.73
2018-03-26T17:32:43.604Z,46.83
2018-03-26T17:35:10.154Z,46.43
2018-03-26T17:37:36.675Z,44.70
2018-03-26T17:40:03.937Z,46.00
2018-03-26T17:42:30.479Z,45.47
2018-03-26T17:44:57.000Z,46.97
2018-03-26T17:47:23.570Z,46.60
2018-03-26T17:49:50.154Z,48.13
2018-03-26T17:52:16.710Z,45.70
2018-03-26T17:54:43.226Z,44.70
2018-03-26T17:57:09.770Z,46.20
2018-03-26T17:59:36.274Z,45.63
2018-03-26T18:02:02.836Z,47.00
2018-03-26T18:04:29.389Z,47.27
2018-03-26T18:06:55.870Z,45.77
2018-03-26T18:09:22.470Z,46.87
2018-03-26T18:11:49.038Z,48.10
2018-03-26T18:14:15.639Z,51.50
2018-03-26T18:16:42.186Z,50.83
2018-03-26T18:19:08.788Z,47.70
2018-03-26T18:21:35.402Z,48.43
2018-03-26T18:24:01.894Z,48.40
2018-03-26T18:26:28.454Z,45.63
2018-03-26T18:28:54.990Z,46.13
2018-03-26T18:31:21.510Z,45.17
2018-03-26T18:33:48.069Z,44.00
2018-03-26T18:36:14.817Z,45.67
2018-03-26T18:38:41.298Z,46.37
2018-03-26T18:41:07.790Z,43.63
2018-03-26T18:43:34.266Z,42.57
2018-03-26T18:46:00.729Z,43.07
2018-03-26T18:48:27.166Z,44.00
2018-03-26T18:50:53.590Z,42.10
2018-03-26T18:53:20.114Z,40.40
2018-03-26T18:55:46.594Z,40.00
2018-03-26T18:58:13.105Z,39.40
2018-03-26T19:00:39.635Z,39.33
2018-03-26T19:03:06.105Z,40.43
2018-03-26T19:05:32.613Z,40.07
2018-03-26T19:07:59.165Z,42.30
2018-03-26T19:10:25.648Z,39.97
2018-03-26T19:12:52.131Z,38.67
2018-03-26T19:15:18.701Z,41.13
2018-03-26T19:17:45.161Z,37.70
2018-03-26T19:20:11.775Z,39.50
2018-03-26T19:22:38.313Z,36.43
2018-03-26T19:25:04.822Z,38.93
2018-03-26T19:27:31.332Z,41.23
2018-03-26T19:29:57.883Z,39.90
2018-03-26T19:32:24.346Z,38.83
2018-03-26T19:34:51.003Z,39.57
2018-03-26T19:37:17.469Z,40.17
2018-03-26T19:39:43.931Z,42.73
2018-03-26T19:42:10.358Z,37.70
2018-03-26T19:44:36.845Z,39.00
2018-03-26T19:47:03.280Z,38.40
2018-03-26T19:49:29.779Z,36.07
2018-03-26T19:51:56.402Z,37.80
2018-03-26T19:54:22.817Z,35.50
2018-03-26T19:56:49.234Z,35.13
2018-03-26T19:59:15.622Z,36.50
2018-03-26T20:01:42.053Z,35.63
2018-03-26T20:04:08.506Z,34.67
2018-03-26T20:06:34.946Z,33.57
2018-03-26T20:09:01.458Z,34.70
2018-03-26T20:11:27.908Z,33.80
2018-03-26T20:13:54.470Z,34.57
2018-03-26T20:16:20.942Z,35.77
2018-03-26T20:18:47.829Z,36.77
2018-03-26T20:21:14.269Z,32.83
2018-03-26T20:23:40.705Z,33.50
2018-03-26T20:26:07.149Z,34.17
2018-03-26T20:28:33.664Z,36.80
2018-03-26T20:31:00.128Z,36.13
2018-03-26T20:33:26.558Z,34.77
2018-03-26T20:35:53.001Z,35.43
2018-03-26T20:38:19.501Z,36.00
2018-03-26T20:40:45.954Z,36.97
2018-03-26T20:43:12.468Z,34.27
2018-03-26T20:45:38.890Z,35.30
2018-03-26T20:48:05.541Z,34.47
2018-03-26T20:50:32.014Z,34.53
2018-03-26T20:52:58.440Z,34.03
2018-03-26T20:55:24.929Z,34.97
2018-03-26T20:57:51.399Z,34.20
2018-03-26T21:00:17.905Z,31.90
2018-03-26T21:02:44.752Z,32.37
2018-03-26T21:05:11.198Z,32.83
2018-03-26T21:07:37.621Z,31.33
2018-03-26T21:10:04.134Z,32.73
2018-03-26T21:12:30.590Z,32.87
2018-03-26T21:14:57.062Z,32.37
2018-03-26T21:17:23.547Z,32.07
2018-03-26T21:19:50.070Z,31.20
2018-03-26T21:22:16.483Z,30.83
2018-03-26T21:24:42.914Z,29.77
2018-03-26T21:27:09.346Z,30.13
2018-03-26T21:29:35.783Z,30.07
2018-03-26T21:32:02.273Z,30.83
2018-03-26T21:34:28.694Z,30.00
2018-03-26T21:36:55.210Z,31.27
2018-03-26T21:39:21.622Z,30.03
2018-03-26T21:41:48.074Z,28.90
2018-03-26T21:44:14.517Z,30.30
2018-03-26T21:46:40.941Z,28.90
2018-03-26T21:49:07.440Z,28.10
2018-03-26T21:51:33.933Z,26.83
2018-03-26T21:54:00.349Z,25.67
2018-03-26T21:56:26.762Z,26.57
2018-03-26T21:58:53.278Z,26.47
2018-03-26T22:01:19.826Z,25.27
2018-03-26T22:03:46.315Z,26.17
2018-03-26T22:06:12.738Z,25.87
2018-03-26T22:08:39.162Z,25.97
2018-03-26T22:11:05.683Z,25.37
2018-03-26T22:13:32.086Z,24.63
2018-03-26T22:15:58.518Z,25.07
2018-03-26T22:18:25.066Z,25.23
2018-03-26T22:20:51.626Z,23.33
2018-03-26T22:23:18.078Z,23.43
2018-03-26T22:25:44.549Z,24.33
2018-03-26T22:28:11.005Z,23.47
2018-03-26T22:30:37.461Z,23.00
2018-03-26T22:33:03.930Z,24.33
2018-03-26T22:35:30.393Z,24.03
2018-03-26T22:37:56.838Z,24.03
2018-03-26T22:40:23.260Z,23.33
2018-03-26T22:42:49.705Z,23.57
2018-03-26T22:45:16.138Z,22.97
2018-03-26T22:47:42.557Z,25.10
2018-03-26T22:50:08.992Z,25.60
2018-03-26T22:52:35.438Z,23.80
2018-03-26T22:55:01.865Z,22.63
2018-03-26T22:57:28.313Z,26.23
2018-03-26T22:59:54.737Z,24.83
2018-03-26T23:02:21.146Z,24.20
2018-03-26T23:04:47.558Z,23.20
2018-03-26T23:07:14.025Z,24.63
2018-03-26T23:09:40.451Z,24.10
2018-03-26T23:12:06.938Z,22.77
2018-03-26T23:14:33.441Z,24.03
2018-03-26T23:16:59.861Z,23.93
2018-03-26T23:19:26.293Z,24.70
2018-03-26T23:21:52.718Z,23.53
2018-03-26T23:24:19.136Z,23.33
2018-03-26T23:26:45.554Z,22.27
2018-03-26T23:29:12.005Z,24.43
2018-03-26T23:31:38.557Z,23.50
2018-03-26T23:34:05.158Z,25.07
2018-03-26T23:36:31.589Z,23.33
2018-03-26T23:38:58.016Z,26.23
2018-03-26T23:41:24.457Z,25.50
2018-03-26T23:43:50.939Z,25.30
2018-03-26T23:46:17.385Z,25.70
2018-03-26T23:48:43.833Z,25.17
2018-03-26T23:51:10.290Z,25.60
2018-03-26T23:53:36.757Z,26.30
2018-03-26T23:56:03.213Z,27.33
2018-03-26T23:58:29.706Z,28.13
